sensor_id;sensor_type;location;lat;lon;timestamp;P1;durP1;ratioP1;P2;durP2;ratioP2
25936;SDS011;13733;51.178;4.450;2024-02-26T00:01:43;5.18;;;2.65;;
25936;SDS011;13733;51.178;4.450;2024-02-26T00:04:11;5.65;;;2.53;;
25936;SDS011;13733;51.178;4.450;2024-02-26T00:06:38;3.83;;;2.20;;
25936;SDS011;13733;51.178;4.450;2024-02-26T00:09:06;4.85;;;2.70;;
25936;SDS011;13733;51.178;4.450;2024-02-26T00:11:32;3.35;;;2.22;;
25936;SDS011;13733;51.178;4.450;2024-02-26T00:13:59;5.72;;;2.50;;
25936;SDS011;13733;51.178;4.450;2024-02-26T00:16:24;4.85;;;2.30;;
25936;SDS011;13733;51.178;4.450;2024-02-26T00:18:50;5.65;;;2.40;;
25936;SDS011;13733;51.178;4.450;2024-02-26T00:21:16;2.92;;;2.10;;
25936;SDS011;13733;51.178;4.450;2024-02-26T00:23:42;5.22;;;1.98;;
25936;SDS011;13733;51.178;4.450;2024-02-26T00:26:08;3.58;;;2.17;;
25936;SDS011;13733;51.178;4.450;2024-02-26T00:28:34;3.15;;;2.13;;
25936;SDS011;13733;51.178;4.450;2024-02-26T00:31:00;5.35;;;2.42;;
25936;SDS011;13733;51.178;4.450;2024-02-26T00:33:25;3.78;;;2.20;;
25936;SDS011;13733;51.178;4.450;2024-02-26T00:35:51;3.88;;;1.95;;
25936;SDS011;13733;51.178;4.450;2024-02-26T00:38:17;3.45;;;2.38;;
25936;SDS011;13733;51.178;4.450;2024-02-26T00:40:43;4.93;;;2.58;;
25936;SDS011;13733;51.178;4.450;2024-02-26T00:43:09;4.15;;;2.28;;
25936;SDS011;13733;51.178;4.450;2024-02-26T00:45:34;3.38;;;2.55;;
25936;SDS011;13733;51.178;4.450;2024-02-26T00:48:02;5.13;;;2.50;;
25936;SDS011;13733;51.178;4.450;2024-02-26T00:50:30;3.88;;;2.58;;
25936;SDS011;13733;51.178;4.450;2024-02-26T00:52:56;5.00;;;2.17;;
25936;SDS011;13733;51.178;4.450;2024-02-26T00:55:23;3.33;;;2.00;;
25936;SDS011;13733;51.178;4.450;2024-02-26T00:57:48;4.40;;;2.30;;
25936;SDS011;13733;51.178;4.450;2024-02-26T01:00:14;2.90;;;1.98;;
25936;SDS011;13733;51.178;4.450;2024-02-26T01:02:41;3.28;;;2.10;;
25936;SDS011;13733;51.178;4.450;2024-02-26T01:05:08;4.80;;;2.30;;
25936;SDS011;13733;51.178;4.450;2024-02-26T01:07:36;4.68;;;2.42;;
25936;SDS011;13733;51.178;4.450;2024-02-26T01:10:02;3.30;;;2.28;;
25936;SDS011;13733;51.178;4.450;2024-02-26T01:12:28;5.95;;;2.25;;
25936;SDS011;13733;51.178;4.450;2024-02-26T01:14:55;4.18;;;2.40;;
25936;SDS011;13733;51.178;4.450;2024-02-26T01:17:20;4.28;;;2.53;;
25936;SDS011;13733;51.178;4.450;2024-02-26T01:19:46;4.63;;;2.10;;
25936;SDS011;13733;51.178;4.450;2024-02-26T01:22:12;3.97;;;2.25;;
25936;SDS011;13733;51.178;4.450;2024-02-26T01:24:38;5.10;;;2.40;;
25936;SDS011;13733;51.178;4.450;2024-02-26T01:27:03;3.78;;;2.38;;
25936;SDS011;13733;51.178;4.450;2024-02-26T01:29:29;4.10;;;2.20;;
25936;SDS011;13733;51.178;4.450;2024-02-26T01:31:55;2.30;;;2.10;;
25936;SDS011;13733;51.178;4.450;2024-02-26T01:34:21;4.15;;;3.22;;
25936;SDS011;13733;51.178;4.450;2024-02-26T01:36:47;5.20;;;2.78;;
25936;SDS011;13733;51.178;4.450;2024-02-26T01:39:13;4.45;;;2.20;;
25936;SDS011;13733;51.178;4.450;2024-02-26T01:41:39;7.15;;;2.20;;
25936;SDS011;13733;51.178;4.450;2024-02-26T01:44:06;3.42;;;2.47;;
25936;SDS011;13733;51.178;4.450;2024-02-26T01:46:32;4.95;;;2.60;;
25936;SDS011;13733;51.178;4.450;2024-02-26T01:49:01;4.05;;;2.20;;
25936;SDS011;13733;51.178;4.450;2024-02-26T01:51:28;4.75;;;2.50;;
25936;SDS011;13733;51.178;4.450;2024-02-26T01:53:55;3.13;;;2.47;;
25936;SDS011;13733;51.178;4.450;2024-02-26T01:56:21;8.20;;;2.80;;
25936;SDS011;13733;51.178;4.450;2024-02-26T01:58:47;3.58;;;2.20;;
25936;SDS011;13733;51.178;4.450;2024-02-26T02:01:15;4.20;;;2.58;;
25936;SDS011;13733;51.178;4.450;2024-02-26T02:03:44;3.45;;;2.38;;
25936;SDS011;13733;51.178;4.450;2024-02-26T02:06:10;3.35;;;2.42;;
25936;SDS011;13733;51.178;4.450;2024-02-26T02:08:37;3.88;;;2.42;;
25936;SDS011;13733;51.178;4.450;2024-02-26T02:11:04;2.53;;;2.15;;
25936;SDS011;13733;51.178;4.450;2024-02-26T02:13:31;2.90;;;2.20;;
25936;SDS011;13733;51.178;4.450;2024-02-26T02:15:56;3.08;;;2.30;;
25936;SDS011;13733;51.178;4.450;2024-02-26T02:18:23;5.45;;;2.55;;
25936;SDS011;13733;51.178;4.450;2024-02-26T02:20:49;5.13;;;2.00;;
25936;SDS011;13733;51.178;4.450;2024-02-26T02:23:15;4.80;;;2.22;;
25936;SDS011;13733;51.178;4.450;2024-02-26T02:25:41;3.22;;;2.03;;
25936;SDS011;13733;51.178;4.450;2024-02-26T02:28:06;5.63;;;2.55;;
25936;SDS011;13733;51.178;4.450;2024-02-26T02:30:32;2.58;;;2.38;;
25936;SDS011;13733;51.178;4.450;2024-02-26T02:33:00;3.67;;;2.47;;
25936;SDS011;13733;51.178;4.450;2024-02-26T02:35:26;2.63;;;2.30;;
25936;SDS011;13733;51.178;4.450;2024-02-26T02:37:53;3.60;;;2.30;;
25936;SDS011;13733;51.178;4.450;2024-02-26T02:40:21;5.30;;;2.40;;
25936;SDS011;13733;51.178;4.450;2024-02-26T02:42:47;3.25;;;2.63;;
25936;SDS011;13733;51.178;4.450;2024-02-26T02:45:13;5.50;;;2.63;;
25936;SDS011;13733;51.178;4.450;2024-02-26T02:47:40;5.43;;;2.90;;
25936;SDS011;13733;51.178;4.450;2024-02-26T02:50:06;4.05;;;2.95;;
25936;SDS011;13733;51.178;4.450;2024-02-26T02:52:32;5.47;;;3.30;;
25936;SDS011;13733;51.178;4.450;2024-02-26T02:54:58;4.05;;;3.13;;
25936;SDS011;13733;51.178;4.450;2024-02-26T02:57:24;4.45;;;3.13;;
25936;SDS011;13733;51.178;4.450;2024-02-26T02:59:50;4.43;;;3.20;;
25936;SDS011;13733;51.178;4.450;2024-02-26T03:02:15;5.25;;;3.30;;
25936;SDS011;13733;51.178;4.450;2024-02-26T03:04:41;5.10;;;3.38;;
25936;SDS011;13733;51.178;4.450;2024-02-26T03:07:07;5.82;;;3.33;;
25936;SDS011;13733;51.178;4.450;2024-02-26T03:09:32;5.63;;;3.60;;
25936;SDS011;13733;51.178;4.450;2024-02-26T03:11:58;8.18;;;3.80;;
25936;SDS011;13733;51.178;4.450;2024-02-26T03:14:24;4.53;;;3.40;;
25936;SDS011;13733;51.178;4.450;2024-02-26T03:16:53;6.18;;;4.10;;
25936;SDS011;13733;51.178;4.450;2024-02-26T03:19:20;7.83;;;3.93;;
25936;SDS011;13733;51.178;4.450;2024-02-26T03:21:45;6.32;;;4.53;;
25936;SDS011;13733;51.178;4.450;2024-02-26T03:24:11;5.93;;;4.60;;
25936;SDS011;13733;51.178;4.450;2024-02-26T03:26:37;6.53;;;4.30;;
25936;SDS011;13733;51.178;4.450;2024-02-26T03:29:03;9.45;;;5.05;;
25936;SDS011;13733;51.178;4.450;2024-02-26T03:31:29;7.40;;;5.32;;
25936;SDS011;13733;51.178;4.450;2024-02-26T03:33:55;8.27;;;5.38;;
25936;SDS011;13733;51.178;4.450;2024-02-26T03:36:21;8.23;;;5.78;;
25936;SDS011;13733;51.178;4.450;2024-02-26T03:38:47;9.85;;;6.03;;
25936;SDS011;13733;51.178;4.450;2024-02-26T03:41:13;8.02;;;5.90;;
25936;SDS011;13733;51.178;4.450;2024-02-26T03:43:39;9.90;;;5.75;;
25936;SDS011;13733;51.178;4.450;2024-02-26T03:46:08;9.02;;;5.72;;
25936;SDS011;13733;51.178;4.450;2024-02-26T03:48:36;9.13;;;6.03;;
25936;SDS011;13733;51.178;4.450;2024-02-26T03:51:02;10.15;;;5.97;;
25936;SDS011;13733;51.178;4.450;2024-02-26T03:53:29;12.00;;;7.30;;
25936;SDS011;13733;51.178;4.450;2024-02-26T03:55:55;8.65;;;6.22;;
25936;SDS011;13733;51.178;4.450;2024-02-26T03:58:21;11.57;;;6.30;;
25936;SDS011;13733;51.178;4.450;2024-02-26T04:00:46;7.97;;;6.80;;
25936;SDS011;13733;51.178;4.450;2024-02-26T04:03:13;7.93;;;6.30;;
25936;SDS011;13733;51.178;4.450;2024-02-26T04:05:39;9.30;;;6.30;;
25936;SDS011;13733;51.178;4.450;2024-02-26T04:08:05;8.40;;;6.00;;
25936;SDS011;13733;51.178;4.450;2024-02-26T04:10:35;7.60;;;5.95;;
25936;SDS011;13733;51.178;4.450;2024-02-26T04:13:04;8.93;;;6.20;;
25936;SDS011;13733;51.178;4.450;2024-02-26T04:15:31;7.47;;;5.95;;
25936;SDS011;13733;51.178;4.450;2024-02-26T04:17:57;7.60;;;5.85;;
25936;SDS011;13733;51.178;4.450;2024-02-26T04:20:23;6.45;;;5.57;;
25936;SDS011;13733;51.178;4.450;2024-02-26T04:22:49;7.50;;;5.22;;
25936;SDS011;13733;51.178;4.450;2024-02-26T04:25:15;7.45;;;5.20;;
25936;SDS011;13733;51.178;4.450;2024-02-26T04:27:41;9.07;;;4.95;;
25936;SDS011;13733;51.178;4.450;2024-02-26T04:30:07;6.30;;;4.80;;
25936;SDS011;13733;51.178;4.450;2024-02-26T04:32:33;7.72;;;4.78;;
25936;SDS011;13733;51.178;4.450;2024-02-26T04:35:00;4.70;;;4.22;;
25936;SDS011;13733;51.178;4.450;2024-02-26T04:37:27;7.70;;;4.68;;
25936;SDS011;13733;51.178;4.450;2024-02-26T04:40:01;7.65;;;4.95;;
25936;SDS011;13733;51.178;4.450;2024-02-26T04:42:27;7.07;;;4.72;;
25936;SDS011;13733;51.178;4.450;2024-02-26T04:44:54;6.70;;;4.55;;
25936;SDS011;13733;51.178;4.450;2024-02-26T04:47:20;6.00;;;4.93;;
25936;SDS011;13733;51.178;4.450;2024-02-26T04:49:50;5.20;;;4.35;;
25936;SDS011;13733;51.178;4.450;2024-02-26T04:52:16;6.63;;;4.55;;
25936;SDS011;13733;51.178;4.450;2024-02-26T04:54:42;6.72;;;4.50;;
25936;SDS011;13733;51.178;4.450;2024-02-26T04:57:07;5.93;;;4.53;;
25936;SDS011;13733;51.178;4.450;2024-02-26T04:59:33;5.45;;;4.53;;
25936;SDS011;13733;51.178;4.450;2024-02-26T05:01:59;4.85;;;4.13;;
25936;SDS011;13733;51.178;4.450;2024-02-26T05:04:24;4.90;;;4.22;;
25936;SDS011;13733;51.178;4.450;2024-02-26T05:06:50;5.15;;;4.55;;
25936;SDS011;13733;51.178;4.450;2024-02-26T05:09:16;7.45;;;4.90;;
25936;SDS011;13733;51.178;4.450;2024-02-26T05:11:41;6.28;;;4.47;;
25936;SDS011;13733;51.178;4.450;2024-02-26T05:14:07;6.35;;;5.03;;
25936;SDS011;13733;51.178;4.450;2024-02-26T05:16:33;4.97;;;4.25;;
25936;SDS011;13733;51.178;4.450;2024-02-26T05:18:59;5.15;;;4.63;;
25936;SDS011;13733;51.178;4.450;2024-02-26T05:21:26;5.05;;;4.13;;
25936;SDS011;13733;51.178;4.450;2024-02-26T05:23:51;5.68;;;4.10;;
25936;SDS011;13733;51.178;4.450;2024-02-26T05:26:21;4.70;;;4.30;;
25936;SDS011;13733;51.178;4.450;2024-02-26T05:28:47;6.05;;;4.65;;
25936;SDS011;13733;51.178;4.450;2024-02-26T05:31:15;5.45;;;4.30;;
25936;SDS011;13733;51.178;4.450;2024-02-26T05:33:41;5.18;;;4.25;;
25936;SDS011;13733;51.178;4.450;2024-02-26T05:36:07;5.93;;;4.20;;
25936;SDS011;13733;51.178;4.450;2024-02-26T05:38:33;6.63;;;4.30;;
25936;SDS011;13733;51.178;4.450;2024-02-26T05:40:59;5.22;;;4.05;;
25936;SDS011;13733;51.178;4.450;2024-02-26T05:43:25;4.53;;;4.05;;
25936;SDS011;13733;51.178;4.450;2024-02-26T05:45:51;6.93;;;4.03;;
25936;SDS011;13733;51.178;4.450;2024-02-26T05:48:17;4.57;;;3.90;;
25936;SDS011;13733;51.178;4.450;2024-02-26T05:50:44;7.85;;;3.90;;
25936;SDS011;13733;51.178;4.450;2024-02-26T05:53:13;4.50;;;3.72;;
25936;SDS011;13733;51.178;4.450;2024-02-26T05:55:38;6.18;;;3.92;;
25936;SDS011;13733;51.178;4.450;2024-02-26T05:58:04;5.07;;;3.90;;
25936;SDS011;13733;51.178;4.450;2024-02-26T06:00:30;5.72;;;4.18;;
25936;SDS011;13733;51.178;4.450;2024-02-26T06:02:56;6.32;;;4.10;;
25936;SDS011;13733;51.178;4.450;2024-02-26T06:05:22;8.70;;;4.53;;
25936;SDS011;13733;51.178;4.450;2024-02-26T06:07:47;8.23;;;4.40;;
25936;SDS011;13733;51.178;4.450;2024-02-26T06:10:13;5.03;;;4.03;;
25936;SDS011;13733;51.178;4.450;2024-02-26T06:12:39;5.72;;;4.07;;
25936;SDS011;13733;51.178;4.450;2024-02-26T06:15:05;7.20;;;4.60;;
25936;SDS011;13733;51.178;4.450;2024-02-26T06:17:32;5.35;;;4.57;;
25936;SDS011;13733;51.178;4.450;2024-02-26T06:19:58;5.57;;;4.43;;
25936;SDS011;13733;51.178;4.450;2024-02-26T06:22:24;6.53;;;4.70;;
25936;SDS011;13733;51.178;4.450;2024-02-26T06:24:50;7.85;;;4.50;;
25936;SDS011;13733;51.178;4.450;2024-02-26T06:27:16;6.50;;;4.85;;
25936;SDS011;13733;51.178;4.450;2024-02-26T06:29:42;7.55;;;4.80;;
25936;SDS011;13733;51.178;4.450;2024-02-26T06:32:08;5.15;;;4.55;;
25936;SDS011;13733;51.178;4.450;2024-02-26T06:34:34;5.35;;;4.45;;
25936;SDS011;13733;51.178;4.450;2024-02-26T06:36:59;8.63;;;4.93;;
25936;SDS011;13733;51.178;4.450;2024-02-26T06:39:25;6.18;;;4.95;;
25936;SDS011;13733;51.178;4.450;2024-02-26T06:41:51;6.95;;;4.80;;
25936;SDS011;13733;51.178;4.450;2024-02-26T06:44:23;5.30;;;4.20;;
25936;SDS011;13733;51.178;4.450;2024-02-26T06:46:49;7.30;;;5.15;;
25936;SDS011;13733;51.178;4.450;2024-02-26T06:49:15;4.95;;;4.50;;
25936;SDS011;13733;51.178;4.450;2024-02-26T06:51:41;6.85;;;4.60;;
25936;SDS011;13733;51.178;4.450;2024-02-26T06:54:07;6.00;;;4.72;;
25936;SDS011;13733;51.178;4.450;2024-02-26T06:56:32;7.53;;;4.80;;
25936;SDS011;13733;51.178;4.450;2024-02-26T06:58:58;7.72;;;4.80;;
25936;SDS011;13733;51.178;4.450;2024-02-26T07:01:24;5.78;;;4.97;;
25936;SDS011;13733;51.178;4.450;2024-02-26T07:03:50;5.47;;;4.97;;
25936;SDS011;13733;51.178;4.450;2024-02-26T07:06:16;5.03;;;4.60;;
25936;SDS011;13733;51.178;4.450;2024-02-26T07:08:42;6.72;;;5.25;;
25936;SDS011;13733;51.178;4.450;2024-02-26T07:11:08;7.10;;;5.30;;
25936;SDS011;13733;51.178;4.450;2024-02-26T07:13:34;7.78;;;5.20;;
25936;SDS011;13733;51.178;4.450;2024-02-26T07:16:00;5.72;;;5.10;;
25936;SDS011;13733;51.178;4.450;2024-02-26T07:18:25;5.32;;;4.82;;
25936;SDS011;13733;51.178;4.450;2024-02-26T07:20:52;7.13;;;4.55;;
25936;SDS011;13733;51.178;4.450;2024-02-26T07:23:18;6.57;;;5.15;;
25936;SDS011;13733;51.178;4.450;2024-02-26T07:25:44;7.32;;;5.57;;
25936;SDS011;13733;51.178;4.450;2024-02-26T07:28:11;5.40;;;4.90;;
25936;SDS011;13733;51.178;4.450;2024-02-26T07:30:37;7.05;;;5.20;;
25936;SDS011;13733;51.178;4.450;2024-02-26T07:33:03;6.22;;;5.50;;
25936;SDS011;13733;51.178;4.450;2024-02-26T07:35:28;6.43;;;5.65;;
25936;SDS011;13733;51.178;4.450;2024-02-26T07:37:54;5.93;;;5.25;;
25936;SDS011;13733;51.178;4.450;2024-02-26T07:40:20;6.57;;;5.28;;
25936;SDS011;13733;51.178;4.450;2024-02-26T07:42:45;6.07;;;5.05;;
25936;SDS011;13733;51.178;4.450;2024-02-26T07:45:12;6.20;;;4.35;;
25936;SDS011;13733;51.178;4.450;2024-02-26T07:47:39;5.60;;;4.63;;
25936;SDS011;13733;51.178;4.450;2024-02-26T07:50:07;5.82;;;4.72;;
25936;SDS011;13733;51.178;4.450;2024-02-26T07:52:33;6.70;;;5.05;;
25936;SDS011;13733;51.178;4.450;2024-02-26T07:54:59;5.57;;;5.03;;
25936;SDS011;13733;51.178;4.450;2024-02-26T07:57:25;6.72;;;5.60;;
25936;SDS011;13733;51.178;4.450;2024-02-26T07:59:51;9.00;;;5.53;;
25936;SDS011;13733;51.178;4.450;2024-02-26T08:02:16;7.88;;;5.30;;
25936;SDS011;13733;51.178;4.450;2024-02-26T08:04:43;5.28;;;4.57;;
25936;SDS011;13733;51.178;4.450;2024-02-26T08:07:09;5.78;;;5.18;;
25936;SDS011;13733;51.178;4.450;2024-02-26T08:09:35;6.68;;;5.18;;
25936;SDS011;13733;51.178;4.450;2024-02-26T08:12:00;6.25;;;5.32;;
25936;SDS011;13733;51.178;4.450;2024-02-26T08:14:26;7.20;;;5.55;;
25936;SDS011;13733;51.178;4.450;2024-02-26T08:16:52;6.13;;;5.25;;
25936;SDS011;13733;51.178;4.450;2024-02-26T08:19:18;5.55;;;5.05;;
25936;SDS011;13733;51.178;4.450;2024-02-26T08:21:43;6.20;;;5.15;;
25936;SDS011;13733;51.178;4.450;2024-02-26T08:24:09;7.65;;;5.35;;
25936;SDS011;13733;51.178;4.450;2024-02-26T08:26:37;5.28;;;4.50;;
25936;SDS011;13733;51.178;4.450;2024-02-26T08:29:04;5.93;;;5.28;;
25936;SDS011;13733;51.178;4.450;2024-02-26T08:31:30;5.65;;;5.00;;
25936;SDS011;13733;51.178;4.450;2024-02-26T08:33:55;6.13;;;5.03;;
25936;SDS011;13733;51.178;4.450;2024-02-26T08:36:21;6.60;;;5.03;;
25936;SDS011;13733;51.178;4.450;2024-02-26T08:38:47;9.32;;;5.00;;
25936;SDS011;13733;51.178;4.450;2024-02-26T08:41:12;10.15;;;5.40;;
25936;SDS011;13733;51.178;4.450;2024-02-26T08:43:38;8.75;;;4.70;;
25936;SDS011;13733;51.178;4.450;2024-02-26T08:46:08;7.85;;;5.38;;
25936;SDS011;13733;51.178;4.450;2024-02-26T08:48:34;10.52;;;5.53;;
25936;SDS011;13733;51.178;4.450;2024-02-26T08:51:04;6.18;;;4.95;;
25936;SDS011;13733;51.178;4.450;2024-02-26T08:55:57;5.65;;;4.43;;
25936;SDS011;13733;51.178;4.450;2024-02-26T08:58:23;6.50;;;4.60;;
25936;SDS011;13733;51.178;4.450;2024-02-26T09:00:49;8.93;;;4.80;;
25936;SDS011;13733;51.178;4.450;2024-02-26T09:03:15;7.05;;;4.80;;
25936;SDS011;13733;51.178;4.450;2024-02-26T09:05:41;4.90;;;4.32;;
25936;SDS011;13733;51.178;4.450;2024-02-26T09:08:06;5.28;;;4.78;;
25936;SDS011;13733;51.178;4.450;2024-02-26T09:10:32;5.90;;;4.78;;
25936;SDS011;13733;51.178;4.450;2024-02-26T09:12:58;5.63;;;4.78;;
25936;SDS011;13733;51.178;4.450;2024-02-26T09:15:24;6.07;;;4.90;;
25936;SDS011;13733;51.178;4.450;2024-02-26T09:17:49;5.72;;;5.13;;
25936;SDS011;13733;51.178;4.450;2024-02-26T09:20:17;5.70;;;4.50;;
25936;SDS011;13733;51.178;4.450;2024-02-26T09:22:46;5.45;;;4.95;;
25936;SDS011;13733;51.178;4.450;2024-02-26T09:25:12;5.85;;;4.80;;
25936;SDS011;13733;51.178;4.450;2024-02-26T09:27:38;5.75;;;5.07;;
25936;SDS011;13733;51.178;4.450;2024-02-26T09:30:04;5.80;;;4.65;;
25936;SDS011;13733;51.178;4.450;2024-02-26T09:32:30;5.95;;;5.15;;
25936;SDS011;13733;51.178;4.450;2024-02-26T09:34:56;7.18;;;5.00;;
25936;SDS011;13733;51.178;4.450;2024-02-26T09:37:22;5.00;;;4.50;;
25936;SDS011;13733;51.178;4.450;2024-02-26T09:39:47;5.85;;;5.25;;
25936;SDS011;13733;51.178;4.450;2024-02-26T09:42:13;6.10;;;5.20;;
25936;SDS011;13733;51.178;4.450;2024-02-26T09:44:40;6.60;;;5.22;;
25936;SDS011;13733;51.178;4.450;2024-02-26T09:47:09;7.65;;;5.53;;
25936;SDS011;13733;51.178;4.450;2024-02-26T09:49:37;5.68;;;5.18;;
25936;SDS011;13733;51.178;4.450;2024-02-26T09:52:04;7.70;;;4.95;;
25936;SDS011;13733;51.178;4.450;2024-02-26T09:54:31;5.65;;;5.07;;
25936;SDS011;13733;51.178;4.450;2024-02-26T09:56:59;7.90;;;5.25;;
25936;SDS011;13733;51.178;4.450;2024-02-26T09:59:28;6.47;;;5.25;;
25936;SDS011;13733;51.178;4.450;2024-02-26T10:02:01;6.05;;;4.93;;
25936;SDS011;13733;51.178;4.450;2024-02-26T10:04:28;8.18;;;5.45;;
25936;SDS011;13733;51.178;4.450;2024-02-26T10:06:54;5.53;;;4.85;;
25936;SDS011;13733;51.178;4.450;2024-02-26T10:09:20;6.50;;;4.95;;
25936;SDS011;13733;51.178;4.450;2024-02-26T10:11:46;6.30;;;5.63;;
25936;SDS011;13733;51.178;4.450;2024-02-26T10:14:14;8.27;;;5.40;;
25936;SDS011;13733;51.178;4.450;2024-02-26T10:16:41;6.10;;;5.50;;
25936;SDS011;13733;51.178;4.450;2024-02-26T10:19:07;6.28;;;5.68;;
25936;SDS011;13733;51.178;4.450;2024-02-26T10:21:33;7.07;;;5.95;;
25936;SDS011;13733;51.178;4.450;2024-02-26T10:23:58;7.80;;;5.85;;
25936;SDS011;13733;51.178;4.450;2024-02-26T10:26:24;7.10;;;6.07;;
25936;SDS011;13733;51.178;4.450;2024-02-26T10:28:50;7.88;;;6.63;;
25936;SDS011;13733;51.178;4.450;2024-02-26T10:31:16;8.57;;;6.40;;
25936;SDS011;13733;51.178;4.450;2024-02-26T10:33:42;7.93;;;6.60;;
25936;SDS011;13733;51.178;4.450;2024-02-26T10:36:09;8.25;;;6.25;;
25936;SDS011;13733;51.178;4.450;2024-02-26T10:38:36;8.43;;;6.70;;
25936;SDS011;13733;51.178;4.450;2024-02-26T10:41:03;7.50;;;6.38;;
25936;SDS011;13733;51.178;4.450;2024-02-26T10:43:30;7.78;;;6.55;;
25936;SDS011;13733;51.178;4.450;2024-02-26T10:45:56;7.38;;;6.57;;
25936;SDS011;13733;51.178;4.450;2024-02-26T10:48:22;7.80;;;6.97;;
25936;SDS011;13733;51.178;4.450;2024-02-26T10:50:48;8.68;;;6.18;;
25936;SDS011;13733;51.178;4.450;2024-02-26T10:53:21;7.65;;;6.53;;
25936;SDS011;13733;51.178;4.450;2024-02-26T10:55:57;8.77;;;6.55;;
25936;SDS011;13733;51.178;4.450;2024-02-26T10:58:26;8.45;;;6.28;;
25936;SDS011;13733;51.178;4.450;2024-02-26T11:00:53;9.27;;;6.97;;
25936;SDS011;13733;51.178;4.450;2024-02-26T11:03:22;10.05;;;6.70;;
25936;SDS011;13733;51.178;4.450;2024-02-26T11:05:50;8.25;;;6.55;;
25936;SDS011;13733;51.178;4.450;2024-02-26T11:08:20;7.78;;;6.40;;
25936;SDS011;13733;51.178;4.450;2024-02-26T11:10:47;8.32;;;6.95;;
25936;SDS011;13733;51.178;4.450;2024-02-26T11:13:14;7.55;;;6.70;;
25936;SDS011;13733;51.178;4.450;2024-02-26T11:15:42;7.65;;;6.53;;
25936;SDS011;13733;51.178;4.450;2024-02-26T11:18:09;7.70;;;6.80;;
25936;SDS011;13733;51.178;4.450;2024-02-26T11:20:38;8.55;;;7.20;;
25936;SDS011;13733;51.178;4.450;2024-02-26T11:23:05;8.98;;;6.63;;
25936;SDS011;13733;51.178;4.450;2024-02-26T11:25:34;9.27;;;6.60;;
25936;SDS011;13733;51.178;4.450;2024-02-26T11:28:01;8.40;;;6.68;;
25936;SDS011;13733;51.178;4.450;2024-02-26T11:30:31;7.50;;;6.07;;
25936;SDS011;13733;51.178;4.450;2024-02-26T11:32:59;10.13;;;6.18;;
25936;SDS011;13733;51.178;4.450;2024-02-26T11:35:26;6.47;;;5.75;;
25936;SDS011;13733;51.178;4.450;2024-02-26T11:37:54;7.18;;;5.93;;
25936;SDS011;13733;51.178;4.450;2024-02-26T11:40:24;8.00;;;6.13;;
25936;SDS011;13733;51.178;4.450;2024-02-26T11:42:51;8.03;;;5.97;;
25936;SDS011;13733;51.178;4.450;2024-02-26T11:48:14;7.63;;;6.53;;
25936;SDS011;13733;51.178;4.450;2024-02-26T11:50:40;8.70;;;6.13;;
25936;SDS011;13733;51.178;4.450;2024-02-26T11:53:27;7.55;;;6.45;;
25936;SDS011;13733;51.178;4.450;2024-02-26T11:58:39;9.38;;;6.45;;
25936;SDS011;13733;51.178;4.450;2024-02-26T12:01:05;10.57;;;6.95;;
25936;SDS011;13733;51.178;4.450;2024-02-26T12:03:53;7.50;;;6.38;;
25936;SDS011;13733;51.178;4.450;2024-02-26T12:06:19;11.88;;;7.18;;
25936;SDS011;13733;51.178;4.450;2024-02-26T12:08:46;9.52;;;7.20;;
25936;SDS011;13733;51.178;4.450;2024-02-26T12:11:15;10.27;;;7.30;;
25936;SDS011;13733;51.178;4.450;2024-02-26T12:13:41;10.02;;;8.00;;
25936;SDS011;13733;51.178;4.450;2024-02-26T12:16:07;9.25;;;7.10;;
25936;SDS011;13733;51.178;4.450;2024-02-26T12:18:34;10.38;;;8.07;;
25936;SDS011;13733;51.178;4.450;2024-02-26T12:21:02;10.68;;;8.48;;
25936;SDS011;13733;51.178;4.450;2024-02-26T12:23:29;11.68;;;7.75;;
25936;SDS011;13733;51.178;4.450;2024-02-26T12:26:01;12.18;;;8.48;;
25936;SDS011;13733;51.178;4.450;2024-02-26T12:28:31;10.43;;;7.43;;
25936;SDS011;13733;51.178;4.450;2024-02-26T12:30:57;9.85;;;7.45;;
25936;SDS011;13733;51.178;4.450;2024-02-26T12:33:25;13.02;;;7.82;;
25936;SDS011;13733;51.178;4.450;2024-02-26T12:35:51;15.23;;;8.52;;
25936;SDS011;13733;51.178;4.450;2024-02-26T12:38:18;11.27;;;8.45;;
25936;SDS011;13733;51.178;4.450;2024-02-26T12:40:44;13.65;;;8.43;;
25936;SDS011;13733;51.178;4.450;2024-02-26T12:43:11;11.60;;;8.10;;
25936;SDS011;13733;51.178;4.450;2024-02-26T12:45:42;10.05;;;7.95;;
25936;SDS011;13733;51.178;4.450;2024-02-26T12:48:12;11.45;;;8.23;;
25936;SDS011;13733;51.178;4.450;2024-02-26T12:50:38;10.40;;;7.95;;
25936;SDS011;13733;51.178;4.450;2024-02-26T12:53:04;9.48;;;7.60;;
25936;SDS011;13733;51.178;4.450;2024-02-26T12:55:31;10.20;;;7.97;;
25936;SDS011;13733;51.178;4.450;2024-02-26T12:58:00;9.88;;;7.53;;
25936;SDS011;13733;51.178;4.450;2024-02-26T13:00:26;10.65;;;7.97;;
25936;SDS011;13733;51.178;4.450;2024-02-26T13:02:53;11.85;;;8.05;;
25936;SDS011;13733;51.178;4.450;2024-02-26T13:05:20;9.90;;;7.50;;
25936;SDS011;13733;51.178;4.450;2024-02-26T13:07:47;9.55;;;7.47;;
25936;SDS011;13733;51.178;4.450;2024-02-26T13:10:13;9.15;;;7.30;;
25936;SDS011;13733;51.178;4.450;2024-02-26T13:12:46;9.20;;;7.20;;
25936;SDS011;13733;51.178;4.450;2024-02-26T13:15:19;8.48;;;6.88;;
25936;SDS011;13733;51.178;4.450;2024-02-26T13:17:46;8.90;;;7.05;;
25936;SDS011;13733;51.178;4.450;2024-02-26T13:20:12;8.63;;;7.15;;
25936;SDS011;13733;51.178;4.450;2024-02-26T13:22:49;12.10;;;7.80;;
25936;SDS011;13733;51.178;4.450;2024-02-26T13:25:19;11.05;;;8.25;;
25936;SDS011;13733;51.178;4.450;2024-02-26T13:27:46;9.27;;;7.28;;
25936;SDS011;13733;51.178;4.450;2024-02-26T13:30:12;10.30;;;7.65;;
25936;SDS011;13733;51.178;4.450;2024-02-26T13:32:38;8.85;;;7.28;;
25936;SDS011;13733;51.178;4.450;2024-02-26T13:35:06;8.18;;;6.72;;
25936;SDS011;13733;51.178;4.450;2024-02-26T13:37:33;9.77;;;7.18;;
25936;SDS011;13733;51.178;4.450;2024-02-26T13:40:06;9.25;;;7.85;;
25936;SDS011;13733;51.178;4.450;2024-02-26T13:42:37;9.50;;;8.02;;
25936;SDS011;13733;51.178;4.450;2024-02-26T13:45:04;10.10;;;7.28;;
25936;SDS011;13733;51.178;4.450;2024-02-26T13:47:34;8.57;;;6.68;;
25936;SDS011;13733;51.178;4.450;2024-02-26T13:50:00;8.93;;;7.38;;
25936;SDS011;13733;51.178;4.450;2024-02-26T13:52:28;8.65;;;6.50;;
25936;SDS011;13733;51.178;4.450;2024-02-26T13:54:57;8.80;;;6.75;;
25936;SDS011;13733;51.178;4.450;2024-02-26T13:57:23;7.10;;;6.40;;
25936;SDS011;13733;51.178;4.450;2024-02-26T13:59:49;8.80;;;7.22;;
25936;SDS011;13733;51.178;4.450;2024-02-26T14:02:15;8.57;;;7.35;;
25936;SDS011;13733;51.178;4.450;2024-02-26T14:04:42;8.85;;;6.95;;
25936;SDS011;13733;51.178;4.450;2024-02-26T14:07:08;9.35;;;6.90;;
25936;SDS011;13733;51.178;4.450;2024-02-26T14:09:35;8.32;;;7.03;;
25936;SDS011;13733;51.178;4.450;2024-02-26T14:12:01;9.00;;;7.07;;
25936;SDS011;13733;51.178;4.450;2024-02-26T14:14:28;7.70;;;6.85;;
25936;SDS011;13733;51.178;4.450;2024-02-26T14:16:53;8.02;;;6.82;;
25936;SDS011;13733;51.178;4.450;2024-02-26T14:19:19;8.40;;;7.13;;
25936;SDS011;13733;51.178;4.450;2024-02-26T14:21:45;9.50;;;6.80;;
25936;SDS011;13733;51.178;4.450;2024-02-26T14:24:11;8.52;;;6.60;;
25936;SDS011;13733;51.178;4.450;2024-02-26T14:26:37;11.13;;;7.32;;
25936;SDS011;13733;51.178;4.450;2024-02-26T14:29:02;8.30;;;6.88;;
25936;SDS011;13733;51.178;4.450;2024-02-26T14:31:28;9.23;;;6.72;;
25936;SDS011;13733;51.178;4.450;2024-02-26T14:33:54;8.80;;;6.95;;
25936;SDS011;13733;51.178;4.450;2024-02-26T14:36:20;8.88;;;6.57;;
25936;SDS011;13733;51.178;4.450;2024-02-26T14:38:46;8.60;;;6.57;;
25936;SDS011;13733;51.178;4.450;2024-02-26T14:41:13;7.20;;;6.03;;
25936;SDS011;13733;51.178;4.450;2024-02-26T14:43:39;7.70;;;5.68;;
25936;SDS011;13733;51.178;4.450;2024-02-26T14:46:05;7.32;;;5.68;;
25936;SDS011;13733;51.178;4.450;2024-02-26T14:48:30;6.95;;;5.88;;
25936;SDS011;13733;51.178;4.450;2024-02-26T14:50:57;10.32;;;6.05;;